createdAt,value
2024-02-21T00:01:23.452Z,1.90
2024-02-21T00:03:50.427Z,2.40
2024-02-21T00:06:17.130Z,1.52
2024-02-21T00:08:43.931Z,1.95
2024-02-21T00:11:10.654Z,2.28
2024-02-21T00:13:37.476Z,3.13
2024-02-21T00:16:04.372Z,1.75
2024-02-21T00:18:31.096Z,2.42
2024-02-21T00:20:57.927Z,1.70
2024-02-21T00:23:24.618Z,2.33
2024-02-21T00:25:51.323Z,3.25
2024-02-21T00:28:18.225Z,2.45
2024-02-21T00:30:45.369Z,2.30
2024-02-21T00:33:12.132Z,1.38
2024-02-21T00:35:39.474Z,2.40
2024-02-21T00:38:06.215Z,3.03
2024-02-21T00:40:32.932Z,2.50
2024-02-21T00:42:59.709Z,2.50
2024-02-21T00:45:26.338Z,3.67
2024-02-21T00:47:53.045Z,2.00
2024-02-21T00:50:19.738Z,1.90
2024-02-21T00:52:46.386Z,2.15
2024-02-21T00:55:13.279Z,1.63
2024-02-21T00:57:39.896Z,4.30
2024-02-21T01:00:07.034Z,1.85
2024-02-21T01:02:33.673Z,3.65
2024-02-21T01:05:00.610Z,2.30
2024-02-21T01:07:27.301Z,2.60
2024-02-21T01:09:56.736Z,3.15
2024-02-21T01:12:23.400Z,2.67
2024-02-21T01:14:50.691Z,2.85
2024-02-21T01:17:17.439Z,1.77
2024-02-21T01:19:44.159Z,3.50
2024-02-21T01:22:10.984Z,2.20
2024-02-21T01:24:37.641Z,2.15
2024-02-21T01:27:04.405Z,3.42
2024-02-21T01:29:33.954Z,2.33
2024-02-21T01:32:00.561Z,3.35
2024-02-21T01:34:30.432Z,3.83
2024-02-21T01:37:00.322Z,2.00
2024-02-21T01:39:29.294Z,2.67
2024-02-21T01:41:55.892Z,3.03
2024-02-21T01:44:22.492Z,3.67
2024-02-21T01:46:49.192Z,2.05
2024-02-21T01:49:15.975Z,4.00
2024-02-21T01:51:42.541Z,3.88
2024-02-21T01:54:11.071Z,3.08
2024-02-21T01:56:38.012Z,2.85
2024-02-21T01:59:04.683Z,3.97
2024-02-21T02:01:31.439Z,2.63
2024-02-21T02:04:00.223Z,1.98
2024-02-21T02:06:26.940Z,2.67
2024-02-21T02:08:57.796Z,4.10
2024-02-21T02:11:24.548Z,3.35
2024-02-21T02:13:51.169Z,4.20
2024-02-21T02:16:17.779Z,2.55
2024-02-21T02:18:44.475Z,3.80
2024-02-21T02:21:24.091Z,3.55
2024-02-21T02:23:50.688Z,5.60
2024-02-21T02:26:17.229Z,4.45
2024-02-21T02:28:43.808Z,3.10
2024-02-21T02:31:10.464Z,5.80
2024-02-21T02:33:37.202Z,3.17
2024-02-21T02:36:04.074Z,3.17
2024-02-21T02:38:30.645Z,3.10
2024-02-21T02:40:57.365Z,3.80
2024-02-21T02:43:24.137Z,2.85
2024-02-21T02:45:50.727Z,2.30
2024-02-21T02:48:17.625Z,3.00
2024-02-21T02:50:44.248Z,3.47
2024-02-21T02:53:10.802Z,1.85
2024-02-21T02:55:37.405Z,2.08
2024-02-21T02:58:04.378Z,3.90
2024-02-21T03:00:30.997Z,3.70
2024-02-21T03:02:57.665Z,2.35
2024-02-21T03:05:27.094Z,3.67
2024-02-21T03:07:53.896Z,2.58
2024-02-21T03:10:20.783Z,1.95
2024-02-21T03:12:47.948Z,2.92
2024-02-21T03:15:15.673Z,2.22
2024-02-21T03:17:42.905Z,3.03
2024-02-21T03:20:11.470Z,3.05
2024-02-21T03:22:39.244Z,5.13
2024-02-21T03:25:07.703Z,3.35
2024-02-21T03:27:34.799Z,1.63
2024-02-21T03:30:02.598Z,2.90
2024-02-21T03:32:30.353Z,3.58
2024-02-21T03:34:57.805Z,3.63
2024-02-21T03:37:24.521Z,2.35
2024-02-21T03:39:51.195Z,1.83
2024-02-21T03:42:17.795Z,2.95
2024-02-21T03:44:44.371Z,2.83
2024-02-21T03:47:12.703Z,1.77
2024-02-21T03:49:39.813Z,2.80
2024-02-21T03:52:06.719Z,3.65
2024-02-21T03:54:33.356Z,2.38
2024-02-21T03:56:59.928Z,2.85
2024-02-21T03:59:26.487Z,2.03
2024-02-21T04:01:55.733Z,2.25
2024-02-21T04:04:22.596Z,3.63
2024-02-21T04:06:50.404Z,1.90
2024-02-21T04:09:17.186Z,2.33
2024-02-21T04:11:44.136Z,3.35
2024-02-21T04:14:12.589Z,2.35
2024-02-21T04:16:40.207Z,2.63
2024-02-21T04:19:06.838Z,3.38
2024-02-21T04:21:33.693Z,3.47
2024-02-21T04:24:00.679Z,2.55
2024-02-21T04:26:27.331Z,2.33
2024-02-21T04:28:54.089Z,2.75
2024-02-21T04:31:20.727Z,3.40
2024-02-21T04:33:47.642Z,2.58
2024-02-21T04:36:14.252Z,3.95
2024-02-21T04:38:41.975Z,3.33
2024-02-21T04:41:09.242Z,4.45
2024-02-21T04:43:36.214Z,2.28
2024-02-21T04:46:03.053Z,2.67
2024-02-21T04:48:29.636Z,3.13
2024-02-21T04:50:56.237Z,3.38
2024-02-21T04:53:22.867Z,3.60
2024-02-21T04:55:49.636Z,2.45
2024-02-21T04:58:16.368Z,3.15
2024-02-21T05:00:43.133Z,3.22
2024-02-21T05:03:09.890Z,4.65
2024-02-21T05:05:36.932Z,3.00
2024-02-21T05:08:04.289Z,2.50
2024-02-21T05:10:30.990Z,1.98
2024-02-21T05:12:59.358Z,2.83
2024-02-21T05:15:26.067Z,4.40
2024-02-21T05:17:52.712Z,2.90
2024-02-21T05:20:19.483Z,4.10
2024-02-21T05:22:46.182Z,2.50
2024-02-21T05:25:12.733Z,3.42
2024-02-21T05:27:39.778Z,3.25
2024-02-21T05:30:07.837Z,3.30
2024-02-21T05:32:34.617Z,3.70
2024-02-21T05:35:01.560Z,3.42
2024-02-21T05:37:28.290Z,4.25
2024-02-21T05:39:54.990Z,5.63
2024-02-21T05:42:21.629Z,5.68
2024-02-21T05:44:48.243Z,4.43
2024-02-21T05:47:16.732Z,5.10
2024-02-21T05:49:43.904Z,5.20
2024-02-21T05:52:10.668Z,5.47
2024-02-21T05:54:40.268Z,6.45
2024-02-21T05:57:09.609Z,6.30
2024-02-21T05:59:37.597Z,6.47
2024-02-21T06:02:05.466Z,6.85
2024-02-21T06:04:32.313Z,6.22
2024-02-21T06:06:59.194Z,5.55
2024-02-21T06:09:26.134Z,6.90
2024-02-21T06:11:52.936Z,6.22
2024-02-21T06:14:21.019Z,5.32
2024-02-21T06:16:47.672Z,6.47
2024-02-21T06:19:14.509Z,6.35
2024-02-21T06:21:41.154Z,5.90
2024-02-21T06:24:07.923Z,5.93
2024-02-21T06:26:34.522Z,7.00
2024-02-21T06:29:01.720Z,6.82
2024-02-21T06:31:29.204Z,6.43
2024-02-21T06:33:56.137Z,5.97
2024-02-21T06:36:23.066Z,7.10
2024-02-21T06:38:49.836Z,6.35
2024-02-21T06:41:20.591Z,6.53
2024-02-21T06:43:48.490Z,6.32
2024-02-21T06:46:29.911Z,8.10
2024-02-21T06:48:58.419Z,8.02
2024-02-21T06:51:28.747Z,6.53
2024-02-21T06:53:56.286Z,7.43
2024-02-21T06:56:30.126Z,7.15
2024-02-21T06:58:57.326Z,6.50
2024-02-21T07:01:24.864Z,6.28
2024-02-21T07:03:51.727Z,6.95
2024-02-21T07:06:18.473Z,6.30
2024-02-21T07:08:45.140Z,7.07
2024-02-21T07:11:12.577Z,7.22
2024-02-21T07:13:41.469Z,8.65
2024-02-21T07:16:09.083Z,7.80
2024-02-21T07:18:36.001Z,7.75
2024-02-21T07:21:02.718Z,8.02
2024-02-21T07:23:29.270Z,8.15
2024-02-21T07:25:56.044Z,7.32
2024-02-21T07:28:22.689Z,7.30
2024-02-21T07:30:49.579Z,7.45
2024-02-21T07:33:16.202Z,9.13
2024-02-21T07:35:46.359Z,8.40
2024-02-21T07:38:14.019Z,7.03
2024-02-21T07:40:40.920Z,6.57
2024-02-21T07:43:07.591Z,8.40
2024-02-21T07:45:34.316Z,8.40
2024-02-21T07:48:01.000Z,6.78
2024-02-21T07:50:28.101Z,8.50
2024-02-21T07:52:54.801Z,6.63
2024-02-21T07:55:21.434Z,7.00
2024-02-21T07:57:48.044Z,6.82
2024-02-21T08:00:21.221Z,7.68
2024-02-21T08:02:49.985Z,6.53
2024-02-21T08:05:16.699Z,6.80
2024-02-21T08:07:43.305Z,6.45
2024-02-21T08:10:10.052Z,9.00
2024-02-21T08:12:36.969Z,8.43
2024-02-21T08:15:09.261Z,7.53
2024-02-21T08:17:35.865Z,7.18
2024-02-21T08:20:02.542Z,7.25
2024-02-21T08:22:29.668Z,8.25
2024-02-21T08:24:56.231Z,6.95
2024-02-21T08:27:22.970Z,7.15
2024-02-21T08:29:49.591Z,7.53
2024-02-21T08:32:16.123Z,6.45
2024-02-21T08:34:42.937Z,6.93
2024-02-21T08:37:11.859Z,6.20
2024-02-21T08:39:38.468Z,6.78
2024-02-21T08:42:05.746Z,7.72
2024-02-21T08:44:32.326Z,7.53
2024-02-21T08:46:59.006Z,7.88
2024-02-21T08:49:33.464Z,8.23
2024-02-21T08:52:01.618Z,7.07
2024-02-21T08:54:28.250Z,8.10
2024-02-21T08:56:55.714Z,8.18
2024-02-21T08:59:22.396Z,6.80
2024-02-21T09:01:49.220Z,10.15
2024-02-21T09:04:15.877Z,9.07
2024-02-21T09:06:43.063Z,9.13
2024-02-21T09:09:10.958Z,10.55
2024-02-21T09:11:38.965Z,9.00
2024-02-21T09:14:05.766Z,10.90
2024-02-21T09:16:33.317Z,9.02
2024-02-21T09:19:00.388Z,9.02
2024-02-21T09:21:27.025Z,9.07
2024-02-21T09:23:55.719Z,8.38
2024-02-21T09:26:24.459Z,10.10
2024-02-21T09:28:51.203Z,9.82
2024-02-21T09:31:17.881Z,9.13
2024-02-21T09:33:44.563Z,10.20
2024-02-21T09:36:11.828Z,9.15
2024-02-21T09:38:41.028Z,9.18
2024-02-21T09:41:22.800Z,10.85
2024-02-21T09:43:54.830Z,9.55
2024-02-21T09:46:46.144Z,10.43
2024-02-21T09:49:25.241Z,10.55
2024-02-21T09:51:55.026Z,9.88
2024-02-21T09:54:23.074Z,10.57
2024-02-21T09:56:49.762Z,10.32
2024-02-21T09:59:17.250Z,9.65
2024-02-21T10:01:50.624Z,9.48
2024-02-21T10:04:17.355Z,9.32
2024-02-21T10:06:44.637Z,8.65
2024-02-21T10:09:31.889Z,9.98
2024-02-21T10:12:10.563Z,7.90
2024-02-21T10:14:37.560Z,9.15
2024-02-21T10:17:06.160Z,8.80
2024-02-21T10:19:32.916Z,7.70
2024-02-21T10:22:08.868Z,7.63
2024-02-21T10:24:36.425Z,7.70
2024-02-21T10:27:09.998Z,7.60
2024-02-21T10:29:37.134Z,6.95
2024-02-21T10:32:14.956Z,6.82
2024-02-21T10:34:44.465Z,6.45
2024-02-21T10:37:12.745Z,6.82
2024-02-21T10:39:43.690Z,5.55
2024-02-21T10:42:12.894Z,5.00
2024-02-21T10:44:42.407Z,5.30
2024-02-21T10:47:11.224Z,5.22
2024-02-21T10:49:42.515Z,5.00
2024-02-21T10:52:31.142Z,4.57
2024-02-21T10:55:04.952Z,5.47
2024-02-21T10:57:37.789Z,4.43
2024-02-21T11:00:09.126Z,4.32
2024-02-21T11:02:36.482Z,5.25
2024-02-21T11:05:04.733Z,4.13
2024-02-21T11:07:34.044Z,4.13
2024-02-21T11:10:01.289Z,3.75
2024-02-21T11:12:28.832Z,4.38
2024-02-21T11:15:06.386Z,4.07
2024-02-21T11:17:33.856Z,3.53
2024-02-21T11:20:13.391Z,4.20
2024-02-21T11:22:44.147Z,4.07
2024-02-21T11:25:12.923Z,3.60
2024-02-21T11:27:39.991Z,3.42
2024-02-21T11:30:07.137Z,3.47
2024-02-21T11:32:33.748Z,3.42
2024-02-21T11:35:07.120Z,3.30
2024-02-21T11:37:39.804Z,3.13
2024-02-21T11:40:11.503Z,3.70
2024-02-21T11:42:38.981Z,3.38
2024-02-21T11:45:06.083Z,3.25
2024-02-21T11:47:32.745Z,3.53
2024-02-21T11:49:59.549Z,3.58
2024-02-21T11:52:27.698Z,3.17
2024-02-21T11:54:57.488Z,3.33
2024-02-21T11:57:26.669Z,4.32
2024-02-21T11:59:58.255Z,4.68
2024-02-21T12:02:27.975Z,4.40
2024-02-21T12:04:55.814Z,4.38
2024-02-21T12:07:24.854Z,4.15
2024-02-21T12:09:53.634Z,4.82
2024-02-21T12:12:22.076Z,4.35
2024-02-21T12:14:57.640Z,3.88
2024-02-21T12:17:24.762Z,4.47
2024-02-21T12:19:52.125Z,4.32
2024-02-21T12:22:22.006Z,4.93
2024-02-21T12:24:50.276Z,3.92
2024-02-21T12:27:16.889Z,3.88
2024-02-21T12:29:43.524Z,3.00
2024-02-21T12:32:10.305Z,3.33
2024-02-21T12:34:47.898Z,3.42
2024-02-21T12:37:21.483Z,3.63
2024-02-21T12:39:48.630Z,3.45
2024-02-21T12:42:15.297Z,3.80
2024-02-21T12:44:41.930Z,3.67
2024-02-21T12:47:09.461Z,4.20
2024-02-21T12:52:04.831Z,4.07
2024-02-21T12:54:32.202Z,3.28
2024-02-21T12:57:00.252Z,4.43
2024-02-21T12:59:28.945Z,3.80
2024-02-21T13:01:55.707Z,3.15
2024-02-21T13:04:23.952Z,3.88
2024-02-21T13:06:50.755Z,3.53
2024-02-21T13:09:17.342Z,3.75
2024-02-21T13:11:46.108Z,3.67
2024-02-21T13:14:13.149Z,3.78
2024-02-21T13:16:43.080Z,3.17
2024-02-21T13:19:10.034Z,3.15
2024-02-21T13:21:37.417Z,3.47
2024-02-21T13:24:04.581Z,4.60
2024-02-21T13:26:31.273Z,3.05
2024-02-21T13:28:58.060Z,3.45
2024-02-21T13:31:26.826Z,4.40
2024-02-21T13:33:53.748Z,3.50
2024-02-21T13:36:20.674Z,3.22
2024-02-21T13:38:48.280Z,3.40
2024-02-21T13:41:15.214Z,3.20
2024-02-21T13:43:41.937Z,3.10
2024-02-21T13:46:11.159Z,2.83
2024-02-21T13:48:39.597Z,4.03
2024-02-21T13:51:06.334Z,3.10
2024-02-21T13:53:33.046Z,3.10
2024-02-21T13:56:02.415Z,2.55
2024-02-21T13:58:29.125Z,3.40
2024-02-21T14:00:55.849Z,3.58
2024-02-21T14:03:22.664Z,2.92
2024-02-21T14:05:52.345Z,4.13
2024-02-21T14:08:19.014Z,2.85
2024-02-21T14:10:45.820Z,2.85
2024-02-21T14:13:12.938Z,2.40
2024-02-21T14:15:42.104Z,3.00
2024-02-21T14:18:10.538Z,2.60
2024-02-21T14:20:40.380Z,2.50
2024-02-21T14:23:07.128Z,3.65
2024-02-21T14:25:34.732Z,3.03
2024-02-21T14:28:01.896Z,3.58
2024-02-21T14:30:28.654Z,2.95
2024-02-21T14:32:55.272Z,3.05
2024-02-21T14:35:22.034Z,2.25
2024-02-21T14:37:50.433Z,4.32
2024-02-21T14:40:17.134Z,3.72
2024-02-21T14:42:43.762Z,2.40
2024-02-21T14:45:10.474Z,3.42
2024-02-21T14:47:37.299Z,2.40
2024-02-21T14:50:06.114Z,2.42
2024-02-21T14:52:34.404Z,2.92
2024-02-21T14:55:04.064Z,2.15
2024-02-21T14:57:30.843Z,2.60
2024-02-21T15:00:00.049Z,2.30
2024-02-21T15:02:29.062Z,3.10
2024-02-21T15:04:56.468Z,2.72
2024-02-21T15:07:26.672Z,2.30
2024-02-21T15:09:53.815Z,2.58
2024-02-21T15:12:20.551Z,2.42
2024-02-21T15:14:47.295Z,2.72
2024-02-21T15:17:14.286Z,2.58
2024-02-21T15:19:45.063Z,2.95
2024-02-21T15:22:12.769Z,3.03
2024-02-21T15:24:40.481Z,3.95
2024-02-21T15:27:07.503Z,2.60
2024-02-21T15:29:35.573Z,2.40
2024-02-21T15:32:02.138Z,3.00
2024-02-21T15:34:28.953Z,2.92
2024-02-21T15:36:55.714Z,2.38
2024-02-21T15:39:22.277Z,2.10
2024-02-21T15:41:48.848Z,2.28
2024-02-21T15:44:15.558Z,2.63
2024-02-21T15:46:42.157Z,2.13
2024-02-21T15:49:09.128Z,2.70
2024-02-21T15:51:36.229Z,2.88
2024-02-21T15:54:03.091Z,1.98
2024-02-21T15:56:29.699Z,2.25
2024-02-21T15:58:56.513Z,2.45
2024-02-21T16:01:24.659Z,2.95
2024-02-21T16:03:53.521Z,3.13
2024-02-21T16:06:20.244Z,2.45
2024-02-21T16:08:48.292Z,2.85
2024-02-21T16:11:18.988Z,3.28
2024-02-21T16:13:47.670Z,3.55
2024-02-21T16:16:14.560Z,3.25
2024-02-21T16:18:41.221Z,2.60
2024-02-21T16:21:07.863Z,2.38
2024-02-21T16:23:34.442Z,2.40
2024-02-21T16:26:02.304Z,2.47
2024-02-21T16:28:29.128Z,2.47
2024-02-21T16:30:57.659Z,2.58
2024-02-21T16:33:25.794Z,2.30
2024-02-21T16:35:52.767Z,2.72
2024-02-21T16:38:19.694Z,2.78
2024-02-21T16:40:46.502Z,1.90
2024-02-21T16:43:13.129Z,2.53
2024-02-21T16:45:39.876Z,1.98
2024-02-21T16:48:06.864Z,2.38
2024-02-21T16:50:39.074Z,2.88
2024-02-21T16:53:12.430Z,2.28
2024-02-21T16:55:39.089Z,2.20
2024-02-21T16:58:06.047Z,2.40
2024-02-21T17:00:33.115Z,2.28
2024-02-21T17:03:00.379Z,2.45
2024-02-21T17:05:27.477Z,2.55
2024-02-21T17:07:54.700Z,2.60
2024-02-21T17:10:21.522Z,2.67
2024-02-21T17:12:48.203Z,3.30
2024-02-21T17:15:16.904Z,2.47
2024-02-21T17:17:43.879Z,2.03
2024-02-21T17:20:11.025Z,2.55
2024-02-21T17:22:37.905Z,2.42
2024-02-21T17:25:10.981Z,2.22
2024-02-21T17:27:38.599Z,2.60
2024-02-21T17:30:07.073Z,3.45
2024-02-21T17:32:35.618Z,3.72
2024-02-21T17:35:06.718Z,5.10
2024-02-21T17:37:36.504Z,3.20
2024-02-21T17:40:08.449Z,3.33
2024-02-21T17:42:35.937Z,3.70
2024-02-21T17:45:04.109Z,2.95
2024-02-21T17:47:32.094Z,4.28
2024-02-21T17:49:59.128Z,2.45
2024-02-21T17:52:28.240Z,4.82
2024-02-21T17:54:54.996Z,1.75
2024-02-21T17:57:21.575Z,3.40
2024-02-21T17:59:48.206Z,2.00
2024-02-21T18:02:20.813Z,1.63
2024-02-21T18:04:48.874Z,2.15
2024-02-21T18:07:15.775Z,3.00
2024-02-21T18:09:42.503Z,3.40
2024-02-21T18:12:09.650Z,2.42
2024-02-21T18:14:37.018Z,2.67
2024-02-21T18:17:03.747Z,3.08
2024-02-21T18:19:35.547Z,2.95
2024-02-21T18:22:02.988Z,3.08
2024-02-21T18:24:29.573Z,2.33
2024-02-21T18:26:56.593Z,3.15
2024-02-21T18:29:34.709Z,2.58
2024-02-21T18:32:06.315Z,2.67
2024-02-21T18:34:33.201Z,2.78
2024-02-21T18:36:59.811Z,2.83
2024-02-21T18:39:26.429Z,5.22
2024-02-21T18:41:53.988Z,3.70
2024-02-21T18:44:20.587Z,4.18
2024-02-21T18:46:47.346Z,2.88
2024-02-21T18:49:13.971Z,2.83
2024-02-21T18:51:41.036Z,2.60
2024-02-21T18:54:07.687Z,2.85
2024-02-21T18:56:35.303Z,2.63
2024-02-21T18:59:01.985Z,2.40
2024-02-21T19:01:28.773Z,2.63
2024-02-21T19:03:55.452Z,1.90
2024-02-21T19:06:22.448Z,2.22
2024-02-21T19:08:49.112Z,3.50
2024-02-21T19:11:15.875Z,2.88
2024-02-21T19:13:42.808Z,2.85
2024-02-21T19:16:11.314Z,2.58
2024-02-21T19:18:38.731Z,2.55
2024-02-21T19:21:05.911Z,2.60
2024-02-21T19:23:32.451Z,2.45
2024-02-21T19:25:59.056Z,2.17
2024-02-21T19:28:25.722Z,2.50
2024-02-21T19:30:52.341Z,4.07
2024-02-21T19:33:19.720Z,2.95
2024-02-21T19:35:46.549Z,3.75
2024-02-21T19:38:13.368Z,2.75
2024-02-21T19:40:40.003Z,3.38
2024-02-21T19:43:06.651Z,2.25
2024-02-21T19:45:35.728Z,2.00
2024-02-21T19:48:02.574Z,2.70
2024-02-21T19:50:33.853Z,2.60
2024-02-21T19:53:01.249Z,2.67
2024-02-21T19:55:28.382Z,4.05
2024-02-21T19:57:55.486Z,2.08
2024-02-21T20:00:22.368Z,2.55
2024-02-21T20:02:49.885Z,2.10
2024-02-21T20:05:17.081Z,2.20
2024-02-21T20:07:43.776Z,1.90
2024-02-21T20:10:11.144Z,2.13
2024-02-21T20:12:41.198Z,2.75
2024-02-21T20:15:08.326Z,2.05
2024-02-21T20:17:35.200Z,2.00
2024-02-21T20:20:04.231Z,5.50
2024-02-21T20:22:30.852Z,1.80
2024-02-21T20:24:57.495Z,2.03
2024-02-21T20:27:24.032Z,2.22
2024-02-21T20:29:50.679Z,1.95
2024-02-21T20:32:17.262Z,2.00
2024-02-21T20:34:44.513Z,2.25
2024-02-21T20:37:12.412Z,2.35
2024-02-21T20:39:39.049Z,1.70
2024-02-21T20:42:05.894Z,1.70
2024-02-21T20:44:32.505Z,1.67
2024-02-21T20:46:59.097Z,1.45
2024-02-21T20:49:27.493Z,1.55
2024-02-21T20:51:55.171Z,1.65
2024-02-21T20:54:21.762Z,1.75
2024-02-21T20:56:48.350Z,1.90
2024-02-21T20:59:20.117Z,2.00
2024-02-21T21:01:54.172Z,1.85
2024-02-21T21:04:28.769Z,1.75
2024-02-21T21:06:55.752Z,1.50
2024-02-21T21:09:22.345Z,1.65
2024-02-21T21:11:49.068Z,2.13
2024-02-21T21:14:15.835Z,1.58
2024-02-21T21:16:42.524Z,1.67
2024-02-21T21:19:09.731Z,1.50
2024-02-21T21:21:36.493Z,1.70
2024-02-21T21:24:03.260Z,1.85
2024-02-21T21:26:29.871Z,2.72
2024-02-21T21:28:58.012Z,2.28
2024-02-21T21:31:26.789Z,1.30
2024-02-21T21:33:54.048Z,1.60
2024-02-21T21:36:21.521Z,1.30
2024-02-21T21:38:51.007Z,2.20
2024-02-21T21:41:17.915Z,2.00
2024-02-21T21:43:44.577Z,1.67
2024-02-21T21:46:15.082Z,1.27
2024-02-21T21:48:45.247Z,1.70
2024-02-21T21:51:12.196Z,1.70
2024-02-21T21:53:40.783Z,1.67
2024-02-21T21:56:08.135Z,1.80
2024-02-21T21:58:35.067Z,1.88
2024-02-21T22:01:01.780Z,1.58
2024-02-21T22:03:29.442Z,1.65
2024-02-21T22:05:56.551Z,1.77
2024-02-21T22:08:23.220Z,2.20
2024-02-21T22:10:50.906Z,1.75
2024-02-21T22:13:17.999Z,1.88
2024-02-21T22:15:44.649Z,1.65
2024-02-21T22:18:11.589Z,1.75
2024-02-21T22:20:38.314Z,1.95
2024-02-21T22:23:05.599Z,1.92
2024-02-21T22:25:32.542Z,1.90
2024-02-21T22:27:59.645Z,1.73
2024-02-21T22:30:27.007Z,1.83
2024-02-21T22:32:53.922Z,1.40
2024-02-21T22:35:20.869Z,2.50
2024-02-21T22:37:47.782Z,1.92
2024-02-21T22:40:14.789Z,1.65
2024-02-21T22:42:43.998Z,1.90
2024-02-21T22:45:10.859Z,2.28
2024-02-21T22:47:37.577Z,1.60
2024-02-21T22:50:04.592Z,1.90
2024-02-21T22:52:31.393Z,2.20
2024-02-21T22:54:58.026Z,1.70
2024-02-21T22:57:24.657Z,1.73
2024-02-21T22:59:51.546Z,2.00
2024-02-21T23:02:18.236Z,1.73
2024-02-21T23:04:45.882Z,1.98
2024-02-21T23:07:12.643Z,1.95
2024-02-21T23:09:39.445Z,1.75
2024-02-21T23:12:06.426Z,2.00
2024-02-21T23:14:33.054Z,1.90
2024-02-21T23:16:59.665Z,1.70
2024-02-21T23:19:26.395Z,1.73
2024-02-21T23:21:53.799Z,2.00
2024-02-21T23:24:20.358Z,1.83
2024-02-21T23:26:46.930Z,1.83
2024-02-21T23:29:13.654Z,1.50
2024-02-21T23:31:40.823Z,1.75
2024-02-21T23:34:07.692Z,1.55
2024-02-21T23:36:34.376Z,1.70
2024-02-21T23:39:00.995Z,1.55
2024-02-21T23:41:27.575Z,1.58
2024-02-21T23:43:56.555Z,1.63
2024-02-21T23:46:24.275Z,1.25
2024-02-21T23:48:51.884Z,1.50
2024-02-21T23:51:20.680Z,1.45
2024-02-21T23:53:47.353Z,1.30
2024-02-21T23:56:14.047Z,1.45
2024-02-21T23:58:40.748Z,1.08
